Accueil
METAR-TAF:

METAR-TAF

Aéroports :

North Central State Airport

Pawtucket, Rhode Island, États-Unis

latitude: 41-55N, longitude: 071-30W, altitude: 134 m

Observation

Le bulletin a été fait il y a 42 minutes, à 06:56 UTC
Vent 3 kt de sud/sud-ouest
Température 14°C
Humidité 77%
Pression 1006 hPa
Visibilité: 16.1 km
Ciel couvert à une hauteur de 5500 ft

METAR: KSFZ 030656Z AUTO 21003KT 10SM OVC055 14/10 A2971 RMK AO2 SLP008 T01390100

Heure: 03:38 (07:38 UTC)


TAF: absent

Observations et prévisions météorologiques de plus de 4000 aéroports (messages METAR et TAF).

Les stations disponibles sont représentées par des disques jaunes et rouges sur la carte.

Passer la souris dessus pour voir le nom de la station.

Cliquer dessus pour voir les observations et prévisions météorologiques.

Pour changer de carte: cliquez sur les boutons verts avec une croix noire pour zoomer, sur le bouton vert avec un tiret pour effectuer un zoom arrière, ou sur les flèches vertes pour les cartes adjacentes.


METAR-TAF: